sensor_id;sensor_type;location;lat;lon;timestamp;temperature;humidity
14709;DHT22;7445;50.774;4.944;2023-04-03T07:01:44;3.30;99.90
14709;DHT22;7445;50.774;4.944;2023-04-03T07:04:11;3.50;99.90
14709;DHT22;7445;50.774;4.944;2023-04-03T07:06:36;3.50;99.90
14709;DHT22;7445;50.774;4.944;2023-04-03T07:09:02;3.60;99.90
14709;DHT22;7445;50.774;4.944;2023-04-03T07:11:34;3.60;99.90
14709;DHT22;7445;50.774;4.944;2023-04-03T07:14:04;3.70;99.90
14709;DHT22;7445;50.774;4.944;2023-04-03T07:16:31;3.80;99.90
14709;DHT22;7445;50.774;4.944;2023-04-03T07:19:31;3.80;99.90
14709;DHT22;7445;50.774;4.944;2023-04-03T07:22:00;3.90;99.90
14709;DHT22;7445;50.774;4.944;2023-04-03T07:24:52;4.00;99.90
14709;DHT22;7445;50.774;4.944;2023-04-03T07:27:40;4.10;99.90
14709;DHT22;7445;50.774;4.944;2023-04-03T07:30:26;4.20;99.90
14709;DHT22;7445;50.774;4.944;2023-04-03T07:33:21;4.30;99.90
14709;DHT22;7445;50.774;4.944;2023-04-03T07:35:48;4.40;99.90
14709;DHT22;7445;50.774;4.944;2023-04-03T07:38:15;4.50;99.90
14709;DHT22;7445;50.774;4.944;2023-04-03T07:41:10;4.60;99.90
14709;DHT22;7445;50.774;4.944;2023-04-03T07:43:54;4.80;99.90
14709;DHT22;7445;50.774;4.944;2023-04-03T07:46:45;4.80;99.90
14709;DHT22;7445;50.774;4.944;2023-04-03T07:49:32;4.80;99.90
14709;DHT22;7445;50.774;4.944;2023-04-03T07:52:45;4.80;99.90
14709;DHT22;7445;50.774;4.944;2023-04-03T07:55:12;5.00;99.90
14709;DHT22;7445;50.774;4.944;2023-04-03T07:57:38;5.10;99.90
14709;DHT22;7445;50.774;4.944;2023-04-03T08:00:06;5.30;99.90
14709;DHT22;7445;50.774;4.944;2023-04-03T08:02:32;5.40;99.90
14709;DHT22;7445;50.774;4.944;2023-04-03T08:04:58;5.50;99.90
14709;DHT22;7445;50.774;4.944;2023-04-03T08:07:24;5.60;99.90
14709;DHT22;7445;50.774;4.944;2023-04-03T08:09:50;5.70;99.90
14709;DHT22;7445;50.774;4.944;2023-04-03T08:12:16;5.70;99.90
14709;DHT22;7445;50.774;4.944;2023-04-03T08:14:42;5.80;99.90
14709;DHT22;7445;50.774;4.944;2023-04-03T08:17:08;5.80;99.90
14709;DHT22;7445;50.774;4.944;2023-04-03T08:19:37;5.90;99.90
14709;DHT22;7445;50.774;4.944;2023-04-03T08:22:03;6.00;99.90
14709;DHT22;7445;50.774;4.944;2023-04-03T08:24:30;6.10;99.90
14709;DHT22;7445;50.774;4.944;2023-04-03T08:26:57;6.10;99.90
14709;DHT22;7445;50.774;4.944;2023-04-03T08:29:23;6.20;99.90
14709;DHT22;7445;50.774;4.944;2023-04-03T08:31:49;6.20;99.90
14709;DHT22;7445;50.774;4.944;2023-04-03T08:34:16;6.40;99.90
14709;DHT22;7445;50.774;4.944;2023-04-03T08:36:42;6.40;99.90
14709;DHT22;7445;50.774;4.944;2023-04-03T08:39:08;6.50;99.90
14709;DHT22;7445;50.774;4.944;2023-04-03T08:41:44;6.70;99.90
14709;DHT22;7445;50.774;4.944;2023-04-03T08:47:04;7.10;99.90
14709;DHT22;7445;50.774;4.944;2023-04-03T08:50:04;7.00;99.90
14709;DHT22;7445;50.774;4.944;2023-04-03T08:52:38;7.10;99.90
14709;DHT22;7445;50.774;4.944;2023-04-03T08:55:13;7.30;99.90
14709;DHT22;7445;50.774;4.944;2023-04-03T08:57:43;7.50;99.90
14709;DHT22;7445;50.774;4.944;2023-04-03T09:00:21;7.60;99.90
14709;DHT22;7445;50.774;4.944;2023-04-03T09:02:51;7.70;99.90
14709;DHT22;7445;50.774;4.944;2023-04-03T09:05:42;7.80;99.90
14709;DHT22;7445;50.774;4.944;2023-04-03T09:08:28;8.00;99.90
14709;DHT22;7445;50.774;4.944;2023-04-03T09:11:19;8.10;99.90
14709;DHT22;7445;50.774;4.944;2023-04-03T09:14:01;8.00;99.90
14709;DHT22;7445;50.774;4.944;2023-04-03T09:19:28;8.30;99.90
14709;DHT22;7445;50.774;4.944;2023-04-03T09:24:48;8.40;99.90
14709;DHT22;7445;50.774;4.944;2023-04-03T09:27:15;8.30;99.90
14709;DHT22;7445;50.774;4.944;2023-04-03T09:29:44;8.40;99.90
14709;DHT22;7445;50.774;4.944;2023-04-03T09:32:25;8.40;99.90
14709;DHT22;7445;50.774;4.944;2023-04-03T09:34:53;8.40;99.90
14709;DHT22;7445;50.774;4.944;2023-04-03T09:40:04;8.70;99.90
14709;DHT22;7445;50.774;4.944;2023-04-03T09:42:31;8.90;99.90
14709;DHT22;7445;50.774;4.944;2023-04-03T09:45:03;8.80;99.90
14709;DHT22;7445;50.774;4.944;2023-04-03T09:47:31;9.00;99.90
14709;DHT22;7445;50.774;4.944;2023-04-03T09:52:45;9.10;99.90
14709;DHT22;7445;50.774;4.944;2023-04-03T09:55:20;9.20;99.90
14709;DHT22;7445;50.774;4.944;2023-04-03T09:57:59;9.10;99.90
14709;DHT22;7445;50.774;4.944;2023-04-03T10:00:34;9.10;99.90
14709;DHT22;7445;50.774;4.944;2023-04-03T10:03:00;9.30;99.90
14709;DHT22;7445;50.774;4.944;2023-04-03T10:05:39;9.60;99.90
14709;DHT22;7445;50.774;4.944;2023-04-03T10:10:45;9.30;99.90
14709;DHT22;7445;50.774;4.944;2023-04-03T10:13:17;9.50;99.90
14709;DHT22;7445;50.774;4.944;2023-04-03T10:18:44;9.30;99.90
14709;DHT22;7445;50.774;4.944;2023-04-03T10:23:57;9.50;99.90
14709;DHT22;7445;50.774;4.944;2023-04-03T10:31:55;9.70;99.90
14709;DHT22;7445;50.774;4.944;2023-04-03T10:34:42;9.90;99.90
14709;DHT22;7445;50.774;4.944;2023-04-03T10:37:22;9.90;99.90
14709;DHT22;7445;50.774;4.944;2023-04-03T10:40:10;9.90;99.90
14709;DHT22;7445;50.774;4.944;2023-04-03T10:42:58;9.70;99.90
14709;DHT22;7445;50.774;4.944;2023-04-03T10:53:21;10.00;99.90
14709;DHT22;7445;50.774;4.944;2023-04-03T10:56:03;10.30;99.90
14709;DHT22;7445;50.774;4.944;2023-04-03T10:58:38;10.40;99.90
14709;DHT22;7445;50.774;4.944;2023-04-03T11:01:18;10.30;99.90
14709;DHT22;7445;50.774;4.944;2023-04-03T11:03:48;10.20;99.90
14709;DHT22;7445;50.774;4.944;2023-04-03T11:06:16;10.20;99.90
14709;DHT22;7445;50.774;4.944;2023-04-03T11:11:43;10.20;99.90
14709;DHT22;7445;50.774;4.944;2023-04-03T11:14:32;10.10;99.90
14709;DHT22;7445;50.774;4.944;2023-04-03T11:23:02;10.60;99.90
14709;DHT22;7445;50.774;4.944;2023-04-03T11:25:30;10.60;99.90
14709;DHT22;7445;50.774;4.944;2023-04-03T11:28:13;10.50;99.90
14709;DHT22;7445;50.774;4.944;2023-04-03T11:36:26;10.70;99.90
14709;DHT22;7445;50.774;4.944;2023-04-03T11:38:56;11.00;99.90
14709;DHT22;7445;50.774;4.944;2023-04-03T11:41:30;11.00;99.90
14709;DHT22;7445;50.774;4.944;2023-04-03T11:44:04;11.00;99.90
14709;DHT22;7445;50.774;4.944;2023-04-03T11:46:52;11.10;99.90
14709;DHT22;7445;50.774;4.944;2023-04-03T11:49:51;11.10;99.90
14709;DHT22;7445;50.774;4.944;2023-04-03T11:52:57;11.30;99.90
14709;DHT22;7445;50.774;4.944;2023-04-03T11:58:13;11.70;99.90
14709;DHT22;7445;50.774;4.944;2023-04-03T12:01:09;11.90;99.90
14709;DHT22;7445;50.774;4.944;2023-04-03T12:11:19;12.40;99.90
14709;DHT22;7445;50.774;4.944;2023-04-03T12:16:33;12.30;99.90
14709;DHT22;7445;50.774;4.944;2023-04-03T12:24:33;12.20;99.90
14709;DHT22;7445;50.774;4.944;2023-04-03T12:48:22;12.10;99.90
14709;DHT22;7445;50.774;4.944;2023-04-03T12:50:50;12.20;99.90
14709;DHT22;7445;50.774;4.944;2023-04-03T12:53:25;12.30;99.90
14709;DHT22;7445;50.774;4.944;2023-04-03T12:55:56;11.80;99.90
14709;DHT22;7445;50.774;4.944;2023-04-03T12:58:25;11.70;99.90
14709;DHT22;7445;50.774;4.944;2023-04-03T13:01:03;11.70;99.90
14709;DHT22;7445;50.774;4.944;2023-04-03T13:03:30;12.20;99.90
14709;DHT22;7445;50.774;4.944;2023-04-03T13:06:01;12.30;99.90
14709;DHT22;7445;50.774;4.944;2023-04-03T13:08:29;12.30;99.90
14709;DHT22;7445;50.774;4.944;2023-04-03T13:11:06;12.40;99.90
14709;DHT22;7445;50.774;4.944;2023-04-03T13:13:34;12.50;99.90
14709;DHT22;7445;50.774;4.944;2023-04-03T13:15:59;12.50;99.90
14709;DHT22;7445;50.774;4.944;2023-04-03T13:18:37;12.60;99.90
14709;DHT22;7445;50.774;4.944;2023-04-03T13:21:13;12.60;99.90
14709;DHT22;7445;50.774;4.944;2023-04-03T13:23:43;12.60;99.90
14709;DHT22;7445;50.774;4.944;2023-04-03T13:26:10;12.40;99.90
14709;DHT22;7445;50.774;4.944;2023-04-03T13:28:38;12.50;99.90
14709;DHT22;7445;50.774;4.944;2023-04-03T13:31:13;12.60;99.90
14709;DHT22;7445;50.774;4.944;2023-04-03T13:33:59;12.60;99.90
14709;DHT22;7445;50.774;4.944;2023-04-03T13:36:34;12.70;99.90
14709;DHT22;7445;50.774;4.944;2023-04-03T13:39:07;12.70;99.90
14709;DHT22;7445;50.774;4.944;2023-04-03T13:41:51;12.90;99.90
14709;DHT22;7445;50.774;4.944;2023-04-03T13:46:50;12.80;99.90
14709;DHT22;7445;50.774;4.944;2023-04-03T13:51:52;12.90;99.90
14709;DHT22;7445;50.774;4.944;2023-04-03T13:54:28;13.00;99.90
14709;DHT22;7445;50.774;4.944;2023-04-03T13:56:57;13.10;99.90
14709;DHT22;7445;50.774;4.944;2023-04-03T13:59:33;13.00;99.90
14709;DHT22;7445;50.774;4.944;2023-04-03T14:07:03;12.90;99.90
14709;DHT22;7445;50.774;4.944;2023-04-03T14:09:29;12.80;99.90
14709;DHT22;7445;50.774;4.944;2023-04-03T14:12:02;12.70;99.90
14709;DHT22;7445;50.774;4.944;2023-04-03T14:14:33;12.90;99.90
14709;DHT22;7445;50.774;4.944;2023-04-03T14:17:00;12.70;99.90
14709;DHT22;7445;50.774;4.944;2023-04-03T14:19:30;12.80;99.90
14709;DHT22;7445;50.774;4.944;2023-04-03T14:21:57;12.90;99.90
14709;DHT22;7445;50.774;4.944;2023-04-03T14:24:23;13.10;99.90
14709;DHT22;7445;50.774;4.944;2023-04-03T14:26:51;13.10;99.90
14709;DHT22;7445;50.774;4.944;2023-04-03T14:29:18;13.00;99.90
14709;DHT22;7445;50.774;4.944;2023-04-03T14:31:46;12.80;99.90
14709;DHT22;7445;50.774;4.944;2023-04-03T14:34:13;12.60;99.90
14709;DHT22;7445;50.774;4.944;2023-04-03T14:36:39;12.90;99.90
14709;DHT22;7445;50.774;4.944;2023-04-03T14:39:07;12.60;99.90
14709;DHT22;7445;50.774;4.944;2023-04-03T14:41:34;12.50;99.90
14709;DHT22;7445;50.774;4.944;2023-04-03T14:44:00;12.50;99.90
14709;DHT22;7445;50.774;4.944;2023-04-03T14:46:31;12.70;99.90
14709;DHT22;7445;50.774;4.944;2023-04-03T14:48:57;12.80;99.90
14709;DHT22;7445;50.774;4.944;2023-04-03T14:51:23;13.00;99.90
14709;DHT22;7445;50.774;4.944;2023-04-03T14:53:49;12.90;99.90
14709;DHT22;7445;50.774;4.944;2023-04-03T14:56:35;13.00;99.90
14709;DHT22;7445;50.774;4.944;2023-04-03T14:59:45;13.30;99.90
14709;DHT22;7445;50.774;4.944;2023-04-03T15:02:34;13.40;99.90
14709;DHT22;7445;50.774;4.944;2023-04-03T15:06:13;12.90;99.90
14709;DHT22;7445;50.774;4.944;2023-04-03T15:08:58;13.00;99.90
14709;DHT22;7445;50.774;4.944;2023-04-03T15:11:24;13.20;99.90
14709;DHT22;7445;50.774;4.944;2023-04-03T15:13:51;13.10;99.90
14709;DHT22;7445;50.774;4.944;2023-04-03T15:16:40;13.40;99.90
14709;DHT22;7445;50.774;4.944;2023-04-03T15:19:11;13.40;99.90
14709;DHT22;7445;50.774;4.944;2023-04-03T15:22:16;13.20;99.90
14709;DHT22;7445;50.774;4.944;2023-04-03T15:24:43;13.00;99.90
14709;DHT22;7445;50.774;4.944;2023-04-03T15:27:10;13.20;99.90
14709;DHT22;7445;50.774;4.944;2023-04-03T15:29:38;13.10;99.90
14709;DHT22;7445;50.774;4.944;2023-04-03T15:32:07;13.10;99.90
14709;DHT22;7445;50.774;4.944;2023-04-03T15:35:13;12.90;99.90
14709;DHT22;7445;50.774;4.944;2023-04-03T15:37:40;13.10;99.90
14709;DHT22;7445;50.774;4.944;2023-04-03T15:40:26;13.40;99.90
14709;DHT22;7445;50.774;4.944;2023-04-03T15:42:52;13.60;99.90
14709;DHT22;7445;50.774;4.944;2023-04-03T15:45:18;13.50;99.90
14709;DHT22;7445;50.774;4.944;2023-04-03T15:47:43;13.30;99.90
14709;DHT22;7445;50.774;4.944;2023-04-03T15:50:16;13.20;99.90
14709;DHT22;7445;50.774;4.944;2023-04-03T15:52:41;13.30;99.90
14709;DHT22;7445;50.774;4.944;2023-04-03T15:55:08;13.30;99.90
14709;DHT22;7445;50.774;4.944;2023-04-03T15:57:36;13.10;99.90
14709;DHT22;7445;50.774;4.944;2023-04-03T16:00:03;13.20;99.90
14709;DHT22;7445;50.774;4.944;2023-04-03T16:02:33;13.30;99.90
14709;DHT22;7445;50.774;4.944;2023-04-03T16:05:00;13.00;99.90
14709;DHT22;7445;50.774;4.944;2023-04-03T16:07:37;12.70;99.90
14709;DHT22;7445;50.774;4.944;2023-04-03T16:10:04;12.60;99.90
14709;DHT22;7445;50.774;4.944;2023-04-03T16:12:31;12.40;99.90
14709;DHT22;7445;50.774;4.944;2023-04-03T16:14:57;12.00;99.90
14709;DHT22;7445;50.774;4.944;2023-04-03T16:17:24;11.80;99.90
14709;DHT22;7445;50.774;4.944;2023-04-03T16:19:52;11.40;99.90
14709;DHT22;7445;50.774;4.944;2023-04-03T16:22:18;11.30;99.90
14709;DHT22;7445;50.774;4.944;2023-04-03T16:24:43;11.10;99.90
14709;DHT22;7445;50.774;4.944;2023-04-03T16:27:09;11.00;99.90
14709;DHT22;7445;50.774;4.944;2023-04-03T16:29:34;10.90;99.90
14709;DHT22;7445;50.774;4.944;2023-04-03T16:32:01;10.90;99.90
14709;DHT22;7445;50.774;4.944;2023-04-03T16:34:27;10.90;99.90
14709;DHT22;7445;50.774;4.944;2023-04-03T16:37:08;10.70;99.90
14709;DHT22;7445;50.774;4.944;2023-04-03T16:39:35;10.70;99.90
14709;DHT22;7445;50.774;4.944;2023-04-03T16:42:07;10.60;99.90
14709;DHT22;7445;50.774;4.944;2023-04-03T16:44:37;10.70;99.90
14709;DHT22;7445;50.774;4.944;2023-04-03T16:47:43;10.70;99.90
14709;DHT22;7445;50.774;4.944;2023-04-03T16:50:11;10.60;99.90
14709;DHT22;7445;50.774;4.944;2023-04-03T16:52:36;10.60;99.90
14709;DHT22;7445;50.774;4.944;2023-04-03T16:55:06;10.70;99.90
14709;DHT22;7445;50.774;4.944;2023-04-03T16:57:32;10.90;99.90
14709;DHT22;7445;50.774;4.944;2023-04-03T17:00:01;10.80;99.90
14709;DHT22;7445;50.774;4.944;2023-04-03T17:02:26;10.60;99.90
14709;DHT22;7445;50.774;4.944;2023-04-03T17:04:53;10.50;99.90
14709;DHT22;7445;50.774;4.944;2023-04-03T17:07:22;10.40;99.90
14709;DHT22;7445;50.774;4.944;2023-04-03T17:09:48;10.20;99.90
14709;DHT22;7445;50.774;4.944;2023-04-03T17:12:15;10.00;99.90
14709;DHT22;7445;50.774;4.944;2023-04-03T17:14:41;9.80;99.90
14709;DHT22;7445;50.774;4.944;2023-04-03T17:17:09;9.80;99.90
14709;DHT22;7445;50.774;4.944;2023-04-03T17:19:35;9.60;99.90
14709;DHT22;7445;50.774;4.944;2023-04-03T17:22:02;9.50;99.90
14709;DHT22;7445;50.774;4.944;2023-04-03T17:24:28;9.40;99.90
14709;DHT22;7445;50.774;4.944;2023-04-03T17:26:53;9.30;99.90
14709;DHT22;7445;50.774;4.944;2023-04-03T17:29:20;9.20;99.90
14709;DHT22;7445;50.774;4.944;2023-04-03T17:31:45;9.10;99.90
14709;DHT22;7445;50.774;4.944;2023-04-03T17:34:11;9.10;99.90
14709;DHT22;7445;50.774;4.944;2023-04-03T17:36:37;9.10;99.90
14709;DHT22;7445;50.774;4.944;2023-04-03T17:39:04;9.00;99.90
14709;DHT22;7445;50.774;4.944;2023-04-03T17:41:30;8.90;99.90
14709;DHT22;7445;50.774;4.944;2023-04-03T17:43:56;8.80;99.90
14709;DHT22;7445;50.774;4.944;2023-04-03T17:46:22;8.70;99.90
14709;DHT22;7445;50.774;4.944;2023-04-03T17:48:48;8.70;99.90
14709;DHT22;7445;50.774;4.944;2023-04-03T17:51:17;8.60;99.90
14709;DHT22;7445;50.774;4.944;2023-04-03T17:53:44;8.60;99.90
14709;DHT22;7445;50.774;4.944;2023-04-03T17:56:13;8.50;99.90
14709;DHT22;7445;50.774;4.944;2023-04-03T17:58:39;8.40;99.90
14709;DHT22;7445;50.774;4.944;2023-04-03T18:03:38;8.30;99.90
14709;DHT22;7445;50.774;4.944;2023-04-03T18:06:05;8.20;99.90
14709;DHT22;7445;50.774;4.944;2023-04-03T18:08:50;8.10;99.90
14709;DHT22;7445;50.774;4.944;2023-04-03T18:11:17;8.10;99.90
14709;DHT22;7445;50.774;4.944;2023-04-03T18:13:44;8.00;99.90
14709;DHT22;7445;50.774;4.944;2023-04-03T18:16:11;7.90;99.90
14709;DHT22;7445;50.774;4.944;2023-04-03T18:18:37;7.80;99.90
14709;DHT22;7445;50.774;4.944;2023-04-03T18:21:03;7.70;99.90
14709;DHT22;7445;50.774;4.944;2023-04-03T18:23:31;7.60;99.90
14709;DHT22;7445;50.774;4.944;2023-04-03T18:25:59;7.50;99.90
14709;DHT22;7445;50.774;4.944;2023-04-03T18:28:27;7.50;99.90
14709;DHT22;7445;50.774;4.944;2023-04-03T18:30:54;7.40;99.90
14709;DHT22;7445;50.774;4.944;2023-04-03T18:33:19;7.40;99.90
14709;DHT22;7445;50.774;4.944;2023-04-03T18:35:45;7.20;99.90
14709;DHT22;7445;50.774;4.944;2023-04-03T18:38:11;7.20;99.90
14709;DHT22;7445;50.774;4.944;2023-04-03T18:40:37;7.10;99.90
14709;DHT22;7445;50.774;4.944;2023-04-03T18:43:03;6.90;99.90
14709;DHT22;7445;50.774;4.944;2023-04-03T18:45:29;6.90;99.90
14709;DHT22;7445;50.774;4.944;2023-04-03T18:47:56;6.80;99.90
14709;DHT22;7445;50.774;4.944;2023-04-03T18:50:21;6.70;99.90
14709;DHT22;7445;50.774;4.944;2023-04-03T18:52:47;6.70;99.90
14709;DHT22;7445;50.774;4.944;2023-04-03T18:55:16;6.60;99.90
14709;DHT22;7445;50.774;4.944;2023-04-03T18:57:44;6.60;99.90
14709;DHT22;7445;50.774;4.944;2023-04-03T19:00:11;6.60;99.90
14709;DHT22;7445;50.774;4.944;2023-04-03T19:02:37;6.50;99.90
14709;DHT22;7445;50.774;4.944;2023-04-03T19:05:03;6.50;99.90
14709;DHT22;7445;50.774;4.944;2023-04-03T19:07:29;6.50;99.90
14709;DHT22;7445;50.774;4.944;2023-04-03T19:09:55;6.50;99.90
14709;DHT22;7445;50.774;4.944;2023-04-03T19:12:21;6.40;99.90
14709;DHT22;7445;50.774;4.944;2023-04-03T19:14:46;6.30;99.90
14709;DHT22;7445;50.774;4.944;2023-04-03T19:17:12;6.30;99.90
14709;DHT22;7445;50.774;4.944;2023-04-03T19:19:38;6.30;99.90
14709;DHT22;7445;50.774;4.944;2023-04-03T19:22:03;6.20;99.90
14709;DHT22;7445;50.774;4.944;2023-04-03T19:24:29;6.20;99.90
14709;DHT22;7445;50.774;4.944;2023-04-03T19:26:54;6.10;99.90
14709;DHT22;7445;50.774;4.944;2023-04-03T19:29:20;6.10;99.90
14709;DHT22;7445;50.774;4.944;2023-04-03T19:31:46;6.10;99.90
14709;DHT22;7445;50.774;4.944;2023-04-03T19:34:13;6.00;99.90
14709;DHT22;7445;50.774;4.944;2023-04-03T19:36:38;6.00;99.90
14709;DHT22;7445;50.774;4.944;2023-04-03T19:39:04;6.00;99.90
14709;DHT22;7445;50.774;4.944;2023-04-03T19:41:32;5.90;99.90
14709;DHT22;7445;50.774;4.944;2023-04-03T19:43:59;5.80;99.90
14709;DHT22;7445;50.774;4.944;2023-04-03T19:46:26;5.80;99.90
14709;DHT22;7445;50.774;4.944;2023-04-03T19:48:52;5.90;99.90
14709;DHT22;7445;50.774;4.944;2023-04-03T19:51:18;5.70;99.90
14709;DHT22;7445;50.774;4.944;2023-04-03T19:53:44;5.70;99.90
14709;DHT22;7445;50.774;4.944;2023-04-03T19:56:11;5.70;99.90
14709;DHT22;7445;50.774;4.944;2023-04-03T19:58:37;5.70;99.90
14709;DHT22;7445;50.774;4.944;2023-04-03T20:01:04;5.60;99.90
14709;DHT22;7445;50.774;4.944;2023-04-03T20:03:29;5.60;99.90
14709;DHT22;7445;50.774;4.944;2023-04-03T20:05:55;5.60;99.90
14709;DHT22;7445;50.774;4.944;2023-04-03T20:08:22;5.50;99.90
14709;DHT22;7445;50.774;4.944;2023-04-03T20:10:49;5.40;99.90
14709;DHT22;7445;50.774;4.944;2023-04-03T20:13:15;5.40;99.90
14709;DHT22;7445;50.774;4.944;2023-04-03T20:15:41;5.50;99.90
14709;DHT22;7445;50.774;4.944;2023-04-03T20:18:13;5.40;99.90
14709;DHT22;7445;50.774;4.944;2023-04-03T20:20:44;5.40;99.90
14709;DHT22;7445;50.774;4.944;2023-04-03T20:23:11;5.40;99.90
14709;DHT22;7445;50.774;4.944;2023-04-03T20:25:44;5.40;99.90
14709;DHT22;7445;50.774;4.944;2023-04-03T20:28:11;5.30;99.90
14709;DHT22;7445;50.774;4.944;2023-04-03T20:30:38;5.30;99.90
14709;DHT22;7445;50.774;4.944;2023-04-03T20:33:04;5.30;99.90
14709;DHT22;7445;50.774;4.944;2023-04-03T20:35:31;5.20;99.90
14709;DHT22;7445;50.774;4.944;2023-04-03T20:37:59;5.20;99.90
14709;DHT22;7445;50.774;4.944;2023-04-03T20:40:25;5.20;99.90
14709;DHT22;7445;50.774;4.944;2023-04-03T20:42:52;5.20;99.90
14709;DHT22;7445;50.774;4.944;2023-04-03T20:45:18;5.10;99.90
14709;DHT22;7445;50.774;4.944;2023-04-03T20:47:46;5.10;99.90
14709;DHT22;7445;50.774;4.944;2023-04-03T20:50:12;5.10;99.90
14709;DHT22;7445;50.774;4.944;2023-04-03T20:52:38;5.00;99.90
14709;DHT22;7445;50.774;4.944;2023-04-03T20:55:03;5.00;99.90
14709;DHT22;7445;50.774;4.944;2023-04-03T20:57:29;5.00;99.90
14709;DHT22;7445;50.774;4.944;2023-04-03T20:59:56;4.90;99.90
14709;DHT22;7445;50.774;4.944;2023-04-03T21:02:21;4.90;99.90
14709;DHT22;7445;50.774;4.944;2023-04-03T21:04:51;4.90;99.90
14709;DHT22;7445;50.774;4.944;2023-04-03T21:19:13;4.70;99.90
14709;DHT22;7445;50.774;4.944;2023-04-03T21:21:41;4.70;99.90
14709;DHT22;7445;50.774;4.944;2023-04-03T21:24:10;4.60;99.90
14709;DHT22;7445;50.774;4.944;2023-04-03T21:26:37;4.60;99.90
14709;DHT22;7445;50.774;4.944;2023-04-03T21:29:05;4.60;99.90
14709;DHT22;7445;50.774;4.944;2023-04-03T21:34:16;4.60;99.90
